Terminal Aerodrome Forecast
Issued by NWS Grand Forks, ND

Home | Current Version | Previous Version | Text Only | Print | Product List | Glossary Off
Versions: 1 2 3 4 5 6 7 8 9 10 11 12 13 14 15 16 17 18 19 20

000
FTUS43 KFGF 081736
TAFGFK
TAF
KGFK 081736Z 0818/0918 25012KT P6SM OVC080
     FM081900 26015KT P6SM SCT050
     FM082100 30018G28KT P6SM BKN025
     FM090600 34010KT P6SM BKN050
     FM091300 32007KT P6SM SCT110
     FM091400 29006KT P6SM SCT120
     FM091700 23006KT P6SM SCT150=

USA.gov is the U.S. government's official web portal to all federal, state and local government web resources and services.